Chem Orion — V7GZ9 — position and weather

sailwx.info

Track history (hours):
 
Tides and Currents Weather Stations Pressure Air Temp Water Temp Dewpoint Dewpoint Depression Visibility Wind Speed Wind Dir Waves Ship Positions

Chem Orion

Last reported at 2014-Sep-21 09:12 UTC. Time now 2014-Sep-30 21:56 UTC.
Position N 34°59' W 007°13'.
Warning: this ship's position is 9 days out of date.

Length 125 m; draft 7.1 m.

Type: Ship (hazmat cat D). MMSI: 538002197.

Date/timePositionNaut miles runAvg speedWind from/ knotsBaromVisibWave heightAir tempDewpointWater temp
2014-Sep-21 09:12N 34°59' W 007°13'11210.5
2014-Sep-20 22:31N 36°02' W 005°18'19810.4
2014-Sep-20 03:28N 36°54' W 001°21'1311.3
2014-Sep-20 02:21N 37°01' W 001°08'1111.4
2014-Sep-20 01:24N 37°08' W 000°57'1011.4
2014-Sep-20 00:33N 37°13' W 000°47'1411.3
2014-Sep-19 23:18N 37°21' W 000°33'911.6
2014-Sep-19 22:33N 37°26' W 000°24'1211.7
2014-Sep-19 21:33N 37°35' W 000°15'1211.7
2014-Sep-19 20:31N 37°45' W 000°07'1111.5
2014-Sep-19 19:33N 37°55' E 000°01'1111.4
2014-Sep-19 18:33N 38°05' E 000°08'1211.6
2014-Sep-19 17:33N 38°14' E 000°17'1211.5
2014-Sep-19 16:33N 38°24' E 000°24'1211.5
2014-Sep-19 15:33N 38°34' E 000°32'1211.6
2014-Sep-19 14:32N 38°44' E 000°40'2411.9
2014-Sep-19 12:33N 39°07' E 000°48'5212.0
2014-Sep-19 08:10N 39°48' E 001°30'8 9.3
2014-Sep-19 07:16N 39°54' E 001°37'1013.3
2014-Sep-19 06:30N 40°02' E 001°45'1510.4
2014-Sep-19 05:06N 40°14' E 001°57'7511.1
2014-Sep-18 22:23N 41°12' E 002°58'1512.0
2014-Sep-18 21:06N 41°24' E 003°10'711.8
2014-Sep-18 20:32N 41°29' E 003°16'1311.7
2014-Sep-18 19:25N 41°40' E 003°27'1011.4
2014-Sep-18 18:31N 41°48' E 003°35'1111.6
2014-Sep-18 17:33N 41°56' E 003°45'1111.0
2014-Sep-18 16:33N 42°05' E 003°54'1311.1
2014-Sep-18 15:25N 42°15' E 004°05'1011.6
2014-Sep-18 14:32N 42°23' E 004°13'1311.7
2014-Sep-18 13:26N 42°33' E 004°24'1311.5
2014-Sep-18 12:20N 42°43' E 004°35'1011.5
2014-Sep-18 11:26N 42°51' E 004°44'1011.2
2014-Sep-18 10:33N 42°59' E 004°52'1111.2
2014-Sep-18 09:33N 43°07' E 005°02'10 9.6
2014-Sep-18 08:33N 43°17' E 004°59'9 8.8
2014-Sep-18 07:33N 43°24' E 004°53'2 2.4
2014-Sep-18 06:31N 43°26' E 004°50'0 0.0
2014-Sep-18 05:31N 43°26' E 004°50'0 0.0
2014-Sep-18 04:34N 43°26' E 004°50'0 0.0
2014-Sep-18 03:33N 43°26' E 004°50'0 0.0
2014-Sep-18 02:33N 43°26' E 004°50'0 0.0
2014-Sep-18 01:33N 43°26' E 004°50'0 0.0
2014-Sep-18 00:33N 43°26' E 004°50'0 0.0
2014-Sep-17 23:33N 43°26' E 004°50'0 0.0
2014-Sep-17 22:33N 43°26' E 004°50'0 0.0
2014-Sep-17 21:33N 43°26' E 004°50'0 0.0
2014-Sep-17 20:33N 43°26' E 004°50'0 0.0
2014-Sep-17 19:33N 43°26' E 004°50'0 0.0
2014-Sep-17 18:33N 43°26' E 004°50'0 0.0
2014-Sep-17 17:33N 43°26' E 004°50'0 0.0
2014-Sep-17 16:33N 43°26' E 004°50'0 0.0
2014-Sep-17 15:33N 43°26' E 004°50'0 0.0
2014-Sep-17 14:33N 43°26' E 004°50'0 0.0
2014-Sep-17 13:33N 43°26' E 004°50'0 0.0
2014-Sep-17 12:33N 43°26' E 004°50'0 0.0
2014-Sep-17 11:33N 43°26' E 004°50'3 3.4
2014-Sep-17 10:33N 43°24' E 004°54'1 0.9
2014-Sep-17 09:32N 43°24' E 004°55'0 0.0
2014-Sep-17 08:32N 43°24' E 004°55'0 0.0
2014-Sep-17 07:32N 43°24' E 004°55'0 0.0
2014-Sep-17 06:32N 43°24' E 004°55'0 0.0
2014-Sep-17 05:31N 43°24' E 004°55'0 0.0
2014-Sep-17 04:31N 43°24' E 004°55'0 0.0
2014-Sep-17 03:31N 43°24' E 004°55'0 0.0
2014-Sep-17 02:31N 43°24' E 004°55'3 3.4
2014-Sep-17 01:34N 43°24' E 004°60'0 0.0
2014-Sep-17 00:31N 43°24' E 004°60'0 0.0
2014-Sep-16 23:31N 43°24' E 004°60'0 0.0
2014-Sep-16 22:31N 43°24' E 004°60'0 0.0
2014-Sep-16 21:31N 43°24' E 004°60'0 0.0
2014-Sep-16 20:28N 43°24' E 004°60'0 0.0
2014-Sep-16 19:28N 43°24' E 004°60'0 0.0
2014-Sep-16 18:31N 43°24' E 004°60'0 0.0
2014-Sep-16 17:31N 43°24' E 004°60'0 0.0
2014-Sep-16 16:31N 43°24' E 004°60'0 0.0
2014-Sep-16 15:31N 43°24' E 004°60'0 0.0
2014-Sep-16 14:31N 43°24' E 004°60'0 0.0
2014-Sep-16 13:31N 43°24' E 004°60'0 0.0
2014-Sep-16 12:31N 43°24' E 004°60'0 0.0
2014-Sep-16 11:28N 43°24' E 004°60'0 0.0
2014-Sep-16 10:31N 43°24' E 004°60'0 0.0
2014-Sep-16 09:31N 43°24' E 004°60'0 0.0
2014-Sep-16 08:31N 43°24' E 004°60'0 0.0
2014-Sep-16 07:28N 43°24' E 004°60'0 0.0
2014-Sep-16 06:31N 43°24' E 004°60'0 0.0
2014-Sep-16 05:34N 43°24' E 004°60'2 1.7
2014-Sep-16 04:33N 43°23' E 004°58'7 6.7
2014-Sep-16 03:33N 43°16' E 005°01'10012.3
2014-Sep-15 19:26N 41°46' E 005°59'218 9.9
2014-Sep-14 21:33N 38°38' E 008°24'8511.7
2014-Sep-14 14:15N 37°59' E 009°60'912.4
2014-Sep-14 13:31N 37°55' E 010°10'1412.0
2014-Sep-14 12:19N 37°48' E 010°26'2511.8
2014-Sep-14 10:12N 37°36' E 010°54'812.0
2014-Sep-14 09:33N 37°32' E 011°03'8311.7
2014-Sep-14 02:26N 36°46' E 012°30'1011.7
2014-Sep-14 01:33N 36°37' E 012°36'4711.7
2014-Sep-13 21:33N 35°58' E 013°08'1110.8
2014-Sep-13 20:33N 35°48' E 013°09'1111.4
2014-Sep-13 19:33N 35°37' E 013°05'4111.9
2014-Sep-13 16:04N 34°59' E 012°45'611.3
2014-Sep-13 15:33N 34°56' E 012°39'1211.5
2014-Sep-13 14:31N 34°51' E 012°26'2611.3
2014-Sep-13 12:11N 34°39' E 011°57'58 2.0
2014-Sep-12 07:10N 34°44' E 010°46'  
Track history (hours):
 
Tides and Currents Weather Stations Pressure Air Temp Water Temp Dewpoint Dewpoint Depression Visibility Wind Speed Wind Dir Waves Ship Positions

Chem Orion

Last reported at 2014-Sep-21 09:12 UTC. Time now 2014-Sep-30 21:56 UTC.
Position N 34°59' W 007°13'.
Warning: this ship's position is 9 days out of date.

Length 125 m; draft 7.1 m.

Type: Ship (hazmat cat D). MMSI: 538002197.

Date/timePositionNaut miles runAvg speedWind from/ knotsBaromVisibWave heightAir tempDewpointWater temp
2014-Sep-21 09:12N 34°59' W 007°13'11210.5
2014-Sep-20 22:31N 36°02' W 005°18'19810.4
2014-Sep-20 03:28N 36°54' W 001°21'1311.3
2014-Sep-20 02:21N 37°01' W 001°08'1111.4
2014-Sep-20 01:24N 37°08' W 000°57'1011.4
2014-Sep-20 00:33N 37°13' W 000°47'1411.3
2014-Sep-19 23:18N 37°21' W 000°33'911.6
2014-Sep-19 22:33N 37°26' W 000°24'1211.7
2014-Sep-19 21:33N 37°35' W 000°15'1211.7
2014-Sep-19 20:31N 37°45' W 000°07'1111.5
2014-Sep-19 19:33N 37°55' E 000°01'1111.4
2014-Sep-19 18:33N 38°05' E 000°08'1211.6
2014-Sep-19 17:33N 38°14' E 000°17'1211.5
2014-Sep-19 16:33N 38°24' E 000°24'1211.5
2014-Sep-19 15:33N 38°34' E 000°32'1211.6
2014-Sep-19 14:32N 38°44' E 000°40'2411.9
2014-Sep-19 12:33N 39°07' E 000°48'5212.0
2014-Sep-19 08:10N 39°48' E 001°30'8 9.3
2014-Sep-19 07:16N 39°54' E 001°37'1013.3
2014-Sep-19 06:30N 40°02' E 001°45'1510.4
2014-Sep-19 05:06N 40°14' E 001°57'7511.1
2014-Sep-18 22:23N 41°12' E 002°58'1512.0
2014-Sep-18 21:06N 41°24' E 003°10'711.8
2014-Sep-18 20:32N 41°29' E 003°16'1311.7
2014-Sep-18 19:25N 41°40' E 003°27'1011.4
2014-Sep-18 18:31N 41°48' E 003°35'1111.6
2014-Sep-18 17:33N 41°56' E 003°45'1111.0
2014-Sep-18 16:33N 42°05' E 003°54'1311.1
2014-Sep-18 15:25N 42°15' E 004°05'1011.6
2014-Sep-18 14:32N 42°23' E 004°13'1311.7
2014-Sep-18 13:26N 42°33' E 004°24'1311.5
2014-Sep-18 12:20N 42°43' E 004°35'1011.5
2014-Sep-18 11:26N 42°51' E 004°44'1011.2
2014-Sep-18 10:33N 42°59' E 004°52'1111.2
2014-Sep-18 09:33N 43°07' E 005°02'10 9.6
2014-Sep-18 08:33N 43°17' E 004°59'9 8.8
2014-Sep-18 07:33N 43°24' E 004°53'2 2.4
2014-Sep-18 06:31N 43°26' E 004°50'0 0.0
2014-Sep-18 05:31N 43°26' E 004°50'0 0.0
2014-Sep-18 04:34N 43°26' E 004°50'0 0.0
2014-Sep-18 03:33N 43°26' E 004°50'0 0.0
2014-Sep-18 02:33N 43°26' E 004°50'0 0.0
2014-Sep-18 01:33N 43°26' E 004°50'0 0.0
2014-Sep-18 00:33N 43°26' E 004°50'0 0.0
2014-Sep-17 23:33N 43°26' E 004°50'0 0.0
2014-Sep-17 22:33N 43°26' E 004°50'0 0.0
2014-Sep-17 21:33N 43°26' E 004°50'0 0.0
2014-Sep-17 20:33N 43°26' E 004°50'0 0.0
2014-Sep-17 19:33N 43°26' E 004°50'0 0.0
2014-Sep-17 18:33N 43°26' E 004°50'0 0.0
2014-Sep-17 17:33N 43°26' E 004°50'0 0.0
2014-Sep-17 16:33N 43°26' E 004°50'0 0.0
2014-Sep-17 15:33N 43°26' E 004°50'0 0.0
2014-Sep-17 14:33N 43°26' E 004°50'0 0.0
2014-Sep-17 13:33N 43°26' E 004°50'0 0.0
2014-Sep-17 12:33N 43°26' E 004°50'0 0.0
2014-Sep-17 11:33N 43°26' E 004°50'3 3.4
2014-Sep-17 10:33N 43°24' E 004°54'1 0.9
2014-Sep-17 09:32N 43°24' E 004°55'0 0.0
2014-Sep-17 08:32N 43°24' E 004°55'0 0.0
2014-Sep-17 07:32N 43°24' E 004°55'0 0.0
2014-Sep-17 06:32N 43°24' E 004°55'0 0.0
2014-Sep-17 05:31N 43°24' E 004°55'0 0.0
2014-Sep-17 04:31N 43°24' E 004°55'0 0.0
2014-Sep-17 03:31N 43°24' E 004°55'0 0.0
2014-Sep-17 02:31N 43°24' E 004°55'3 3.4
2014-Sep-17 01:34N 43°24' E 004°60'0 0.0
2014-Sep-17 00:31N 43°24' E 004°60'0 0.0
2014-Sep-16 23:31N 43°24' E 004°60'0 0.0
2014-Sep-16 22:31N 43°24' E 004°60'0 0.0
2014-Sep-16 21:31N 43°24' E 004°60'0 0.0
2014-Sep-16 20:28N 43°24' E 004°60'0 0.0
2014-Sep-16 19:28N 43°24' E 004°60'0 0.0
2014-Sep-16 18:31N 43°24' E 004°60'0 0.0
2014-Sep-16 17:31N 43°24' E 004°60'0 0.0
2014-Sep-16 16:31N 43°24' E 004°60'0 0.0
2014-Sep-16 15:31N 43°24' E 004°60'0 0.0
2014-Sep-16 14:31N 43°24' E 004°60'0 0.0
2014-Sep-16 13:31N 43°24' E 004°60'0 0.0
2014-Sep-16 12:31N 43°24' E 004°60'0 0.0
2014-Sep-16 11:28N 43°24' E 004°60'0 0.0
2014-Sep-16 10:31N 43°24' E 004°60'0 0.0
2014-Sep-16 09:31N 43°24' E 004°60'0 0.0
2014-Sep-16 08:31N 43°24' E 004°60'0 0.0
2014-Sep-16 07:28N 43°24' E 004°60'0 0.0
2014-Sep-16 06:31N 43°24' E 004°60'0 0.0
2014-Sep-16 05:34N 43°24' E 004°60'2 1.7
2014-Sep-16 04:33N 43°23' E 004°58'7 6.7
2014-Sep-16 03:33N 43°16' E 005°01'10012.3
2014-Sep-15 19:26N 41°46' E 005°59'218 9.9
2014-Sep-14 21:33N 38°38' E 008°24'8511.7
2014-Sep-14 14:15N 37°59' E 009°60'912.4
2014-Sep-14 13:31N 37°55' E 010°10'1412.0
2014-Sep-14 12:19N 37°48' E 010°26'2511.8
2014-Sep-14 10:12N 37°36' E 010°54'812.0
2014-Sep-14 09:33N 37°32' E 011°03'8311.7
2014-Sep-14 02:26N 36°46' E 012°30'1011.7
2014-Sep-14 01:33N 36°37' E 012°36'4711.7
2014-Sep-13 21:33N 35°58' E 013°08'1110.8
2014-Sep-13 20:33N 35°48' E 013°09'1111.4
2014-Sep-13 19:33N 35°37' E 013°05'4111.9
2014-Sep-13 16:04N 34°59' E 012°45'611.3
2014-Sep-13 15:33N 34°56' E 012°39'1211.5
2014-Sep-13 14:31N 34°51' E 012°26'2611.3
2014-Sep-13 12:11N 34°39' E 011°57'58 2.0
2014-Sep-12 07:10N 34°44' E 010°46'  

Dump ship's entire track history